Time;durP1;ratioP1;P1;durP2;ratioP2;P2;SDS_P1;SDS_P2;PMS_P1;PMS_P2;Temp;Humidity;BMP_temperature;BMP_pressure;BME280_temperature;BME280_humidity;BME280_pressure;Samples;Min_cycle;Max_cycle;Signal;HPM_P1;HPM_P2
2022/12/28 00:02:24;;;;;;;12.63;8.37;;;0.40;99.90;;;;;;5043171;28;20361;-80
2022/12/28 00:04:49;;;;;;;13.73;8.60;;;0.50;99.90;;;;;;5026086;28;20115;-80
2022/12/28 00:07:15;;;;;;;14.37;8.77;;;0.50;99.90;;;;;;5025892;28;20032;-80
2022/12/28 00:09:41;;;;;;;11.60;8.13;;;0.50;99.90;;;;;;5042329;28;20033;-81
2022/12/28 00:12:07;;;;;;;12.20;8.53;;;0.50;99.90;;;;;;5042459;28;20042;-80
2022/12/28 00:14:32;;;;;;;11.77;7.80;;;0.50;99.90;;;;;;5025927;28;20052;-80
2022/12/28 00:16:58;;;;;;;11.57;7.80;;;0.50;99.90;;;;;;5043226;28;20576;-80
2022/12/28 00:19:23;;;;;;;11.27;8.70;;;0.50;99.90;;;;;;5043094;28;20038;-80
2022/12/28 00:21:53;;;;;;;12.20;7.73;;;0.50;99.90;;;;;;5043875;28;20025;-80
2022/12/28 00:24:21;;;;;;;12.73;7.73;;;0.50;99.90;;;;;;5043110;28;20488;-80
2022/12/28 00:26:47;;;;;;;13.90;8.23;;;0.40;99.90;;;;;;5043345;28;20521;-80
2022/12/28 00:29:14;;;;;;;14.00;7.97;;;0.50;99.90;;;;;;5043716;28;20013;-80
2022/12/28 00:31:39;;;;;;;10.63;7.70;;;0.40;99.90;;;;;;5043150;28;20044;-80
2022/12/28 00:34:05;;;;;;;10.77;7.97;;;0.40;99.90;;;;;;5041875;28;20358;-80
2022/12/28 00:36:31;;;;;;;11.97;8.67;;;0.50;99.90;;;;;;5043869;28;20036;-80
2022/12/28 00:38:58;;;;;;;10.43;7.17;;;0.50;99.90;;;;;;5043324;28;20040;-80
2022/12/28 00:41:23;;;;;;;9.43;7.43;;;0.40;99.90;;;;;;5044041;28;20029;-80
2022/12/28 00:43:49;;;;;;;10.40;7.30;;;0.50;99.90;;;;;;5042391;28;20385;-80
2022/12/28 00:46:16;;;;;;;11.63;7.33;;;0.50;99.90;;;;;;5043324;28;20806;-80
2022/12/28 00:48:42;;;;;;;10.27;7.00;;;0.50;99.90;;;;;;5042307;28;20020;-80
2022/12/28 00:51:12;;;;;;;11.03;7.73;;;0.50;99.90;;;;;;5042903;28;21391;-80
2022/12/28 00:53:38;;;;;;;12.37;7.70;;;0.40;99.90;;;;;;5042835;28;20164;-80
2022/12/28 00:56:05;;;;;;;10.00;7.30;;;0.50;99.90;;;;;;5039587;28;20657;-80
2022/12/28 00:58:31;;;;;;;9.97;7.80;;;0.50;99.90;;;;;;5041649;28;20021;-80
2022/12/28 01:00:57;;;;;;;10.43;7.20;;;0.50;99.90;;;;;;5042730;28;20017;-80
2022/12/28 01:03:22;;;;;;;10.00;6.93;;;0.50;99.90;;;;;;5041525;28;20122;-80
2022/12/28 01:05:48;;;;;;;10.30;7.17;;;0.50;99.90;;;;;;5042038;28;20055;-80
2022/12/28 01:08:13;;;;;;;9.20;6.70;;;0.50;99.90;;;;;;5042545;28;20053;-80
2022/12/28 01:10:40;;;;;;;10.60;7.20;;;0.50;99.90;;;;;;5022472;28;20429;-80
2022/12/28 01:13:05;;;;;;;11.70;7.70;;;0.50;99.90;;;;;;5039710;28;20021;-80
2022/12/28 01:15:31;;;;;;;9.87;6.60;;;0.50;99.90;;;;;;5041226;28;21481;-80
2022/12/28 01:17:56;;;;;;;8.93;6.73;;;0.60;99.90;;;;;;5041783;28;20044;-80
2022/12/28 01:20:22;;;;;;;9.70;6.57;;;0.50;99.90;;;;;;5041817;28;20064;-80
2022/12/28 01:22:47;;;;;;;11.30;6.80;;;0.60;99.90;;;;;;5040752;28;20790;-80
2022/12/28 01:25:13;;;;;;;10.07;6.63;;;0.60;99.90;;;;;;5022034;28;20044;-80
2022/12/28 01:27:38;;;;;;;10.20;6.57;;;0.50;99.90;;;;;;5041016;28;20051;-80
2022/12/28 01:30:05;;;;;;;8.40;6.30;;;0.50;99.90;;;;;;5039375;28;20017;-80
2022/12/28 01:32:30;;;;;;;8.50;6.40;;;0.50;99.90;;;;;;5041910;28;20104;-80
2022/12/28 01:34:56;;;;;;;8.57;6.30;;;0.50;99.90;;;;;;5024145;28;20130;-79
2022/12/28 01:37:21;;;;;;;10.63;6.67;;;0.50;99.90;;;;;;5042100;28;20032;-80
2022/12/28 01:39:47;;;;;;;9.00;6.60;;;0.60;99.90;;;;;;5041487;28;20094;-79
2022/12/28 01:42:18;;;;;;;8.10;5.60;;;0.50;99.90;;;;;;5042234;28;20046;-80
2022/12/28 01:44:46;;;;;;;7.00;5.23;;;0.50;99.90;;;;;;5040959;28;20424;-80
2022/12/28 01:47:18;;;;;;;7.53;5.60;;;0.60;99.90;;;;;;5041238;28;20028;-80
2022/12/28 01:49:46;;;;;;;7.70;5.40;;;0.60;99.90;;;;;;5023788;28;20440;-80
2022/12/28 01:52:38;;;;;;;7.10;5.47;;;0.60;99.90;;;;;;5042041;28;20029;-80
2022/12/28 01:55:07;;;;;;;7.97;5.00;;;0.60;99.90;;;;;;5030845;28;20054;-80
2022/12/28 01:57:40;;;;;;;8.13;5.03;;;0.60;99.90;;;;;;5048620;28;20041;-80
2022/12/28 02:00:11;;;;;;;6.97;5.30;;;0.70;99.90;;;;;;5046630;28;20785;-80
2022/12/28 02:02:37;;;;;;;7.33;4.63;;;0.70;99.90;;;;;;5047845;28;20706;-80
2022/12/28 02:05:03;;;;;;;6.53;4.70;;;0.70;99.90;;;;;;5027408;28;20112;-80
2022/12/28 02:07:56;;;;;;;6.10;4.30;;;0.70;99.90;;;;;;5047623;28;20053;-80
2022/12/28 02:10:23;;;;;;;7.53;4.70;;;0.70;99.90;;;;;;5027971;28;20102;-80
2022/12/28 02:24:18;;;;;;;6.25;3.65;;;0.80;99.90;;;;;;5037110;28;20106;-80
2022/12/28 02:26:52;;;;;;;6.27;4.77;;;0.80;99.90;;;;;;5009701;28;20486;-80
2022/12/28 02:29:30;;;;;;;4.78;3.63;;;0.80;99.90;;;;;;5027785;28;20036;-80
2022/12/28 02:32:14;;;;;;;7.77;5.07;;;0.80;99.90;;;;;;5027264;28;20035;-80
2022/12/28 02:35:07;;;;;;;7.23;4.90;;;0.90;99.90;;;;;;5029371;28;20027;-80
2022/12/28 02:37:47;;;;;;;6.90;4.77;;;0.90;99.90;;;;;;5011011;28;20021;-80
2022/12/28 02:40:21;;;;;;;6.53;4.60;;;0.80;99.90;;;;;;5029027;28;20045;-80
2022/12/28 02:42:47;;;;;;;6.33;4.67;;;0.80;99.90;;;;;;5028455;28;20413;-80
2022/12/28 02:51:54;;;;;;;7.03;4.87;;;0.70;99.90;;;;;;5027383;28;20724;-80
2022/12/28 02:57:54;;;;;;;7.77;5.20;;;0.60;99.90;;;;;;5028303;28;20068;-80
2022/12/28 03:00:24;;;;;;;6.17;4.67;;;0.50;99.90;;;;;;5028481;28;20029;-80
2022/12/28 03:03:01;;;;;;;6.97;5.13;;;0.50;99.90;;;;;;5027361;28;20476;-80
2022/12/28 03:08:38;;;;;;;6.70;4.70;;;0.50;99.90;;;;;;5028572;28;20032;-80
2022/12/28 03:11:10;;;;;;;7.30;4.93;;;0.60;99.90;;;;;;5027737;28;20044;-80
2022/12/28 03:13:46;;;;;;;6.00;4.67;;;0.60;99.90;;;;;;5026710;28;20017;-80
2022/12/28 03:33:06;;;;;;;5.63;4.20;;;0.70;99.90;;;;;;5043260;28;20524;-80
2022/12/28 03:35:38;;;;;;;7.20;4.47;;;0.80;99.90;;;;;;5053771;28;20028;-80
2022/12/28 03:38:04;;;;;;;6.07;4.20;;;0.80;99.90;;;;;;5058521;28;20025;-80
2022/12/28 03:40:38;;;;;;;5.63;4.07;;;0.80;99.90;;;;;;5058811;28;20501;-80
2022/12/28 03:46:06;;;;;;;7.03;3.90;;;0.80;99.90;;;;;;5054007;28;20063;-80
2022/12/28 03:48:34;;;;;;;5.23;3.93;;;0.80;99.90;;;;;;5031197;28;20147;-80
2022/12/28 03:51:00;;;;;;;5.10;3.60;;;0.80;99.90;;;;;;5031138;28;20103;-80
2022/12/28 03:53:35;;;;;;;6.10;3.83;;;0.90;99.90;;;;;;5032337;28;20973;-80
2022/12/28 03:56:09;;;;;;;5.23;3.80;;;0.90;99.90;;;;;;5049485;28;20108;-80
2022/12/28 03:58:35;;;;;;;6.70;4.00;;;0.90;99.90;;;;;;5049920;28;20029;-80
2022/12/28 04:01:00;;;;;;;6.37;4.03;;;0.90;99.90;;;;;;5050084;28;20029;-80
2022/12/28 04:03:26;;;;;;;5.20;4.17;;;0.90;99.90;;;;;;5049457;28;20021;-80
2022/12/28 04:05:51;;;;;;;7.53;4.80;;;0.90;99.90;;;;;;5052779;28;20135;-80
2022/12/28 04:08:17;;;;;;;5.57;3.90;;;1.00;99.90;;;;;;5034379;28;20027;-80
2022/12/28 04:10:43;;;;;;;5.33;3.93;;;1.00;99.90;;;;;;5049443;28;20037;-80
2022/12/28 04:13:08;;;;;;;4.40;3.27;;;1.00;99.90;;;;;;5048566;28;20385;-80
2022/12/28 04:15:34;;;;;;;7.07;4.10;;;1.00;99.90;;;;;;5048988;28;20048;-80
2022/12/28 04:18:00;;;;;;;6.00;3.97;;;1.00;99.90;;;;;;5048317;28;20029;-80
2022/12/28 04:20:26;;;;;;;6.37;3.93;;;1.00;99.90;;;;;;5047115;28;20182;-80
2022/12/28 04:22:51;;;;;;;5.83;4.70;;;1.10;99.90;;;;;;5046778;28;20158;-80
2022/12/28 04:25:17;;;;;;;5.30;3.53;;;1.10;99.90;;;;;;5049495;28;20045;-80
2022/12/28 04:27:43;;;;;;;5.37;3.83;;;1.10;99.90;;;;;;5050042;28;20020;-80
2022/12/28 04:30:09;;;;;;;4.10;3.27;;;1.10;99.90;;;;;;5031409;28;20161;-80
2022/12/28 04:32:34;;;;;;;4.20;3.27;;;1.10;99.90;;;;;;5048201;28;20421;-80
2022/12/28 04:35:00;;;;;;;4.67;3.40;;;1.20;99.90;;;;;;5031238;28;20504;-80
2022/12/28 04:37:26;;;;;;;5.10;3.27;;;1.20;99.90;;;;;;5048860;28;20166;-80
2022/12/28 04:39:51;;;;;;;8.17;3.80;;;1.20;99.90;;;;;;5049197;28;20053;-80
2022/12/28 04:42:17;;;;;;;4.30;3.90;;;1.10;99.90;;;;;;5048662;28;20037;-80
2022/12/28 04:44:42;;;;;;;5.43;3.43;;;1.20;99.90;;;;;;5046923;28;20166;-80
2022/12/28 04:47:08;;;;;;;4.30;3.50;;;1.20;99.90;;;;;;5048398;28;20025;-80
2022/12/28 04:49:33;;;;;;;6.70;3.70;;;1.20;99.90;;;;;;5049288;28;20064;-80
2022/12/28 04:51:59;;;;;;;5.70;3.57;;;1.20;99.90;;;;;;5029770;28;20533;-80
2022/12/28 04:54:24;;;;;;;4.80;3.50;;;1.10;99.90;;;;;;5030898;28;20545;-80
2022/12/28 04:56:50;;;;;;;5.13;3.63;;;1.20;99.90;;;;;;5049547;28;20040;-80
2022/12/28 04:59:15;;;;;;;6.23;3.70;;;1.20;99.90;;;;;;5048951;28;20370;-77
2022/12/28 05:01:41;;;;;;;4.37;3.47;;;1.20;99.90;;;;;;5050185;28;20036;-77
2022/12/28 05:04:06;;;;;;;6.53;3.93;;;1.20;99.90;;;;;;5050883;28;20593;-77
2022/12/28 05:06:32;;;;;;;5.00;3.20;;;1.20;99.90;;;;;;5051342;28;20017;-77
2022/12/28 05:08:57;;;;;;;4.43;3.13;;;1.20;99.90;;;;;;5051920;28;20025;-77
2022/12/28 05:11:26;;;;;;;3.90;3.10;;;1.20;99.90;;;;;;5050664;28;20014;-77
2022/12/28 05:13:52;;;;;;;6.80;3.40;;;1.20;99.90;;;;;;5051958;28;20044;-77
2022/12/28 05:16:21;;;;;;;4.30;3.10;;;1.30;99.90;;;;;;5052132;28;20021;-77
2022/12/28 05:18:47;;;;;;;6.20;3.33;;;1.30;99.90;;;;;;5049270;28;20021;-77
2022/12/28 05:21:15;;;;;;;5.47;3.47;;;1.30;99.90;;;;;;5045221;28;20035;-81
2022/12/28 05:23:42;;;;;;;4.10;2.87;;;1.30;99.90;;;;;;5029072;28;20025;-81
2022/12/28 05:26:11;;;;;;;5.10;3.10;;;1.40;99.90;;;;;;5047240;28;20037;-77
2022/12/28 05:28:36;;;;;;;3.80;2.67;;;1.40;99.90;;;;;;5044456;28;20553;-77
2022/12/28 05:31:04;;;;;;;3.43;2.60;;;1.40;99.90;;;;;;5051836;28;20017;-77
2022/12/28 05:33:33;;;;;;;4.77;2.63;;;1.50;99.90;;;;;;5033550;28;20021;-77
2022/12/28 05:36:04;;;;;;;4.10;2.10;;;1.50;99.90;;;;;;5033701;28;20096;-80
2022/12/28 05:38:30;;;;;;;3.80;2.47;;;1.50;99.90;;;;;;5048121;28;20730;-81
2022/12/28 05:40:55;;;;;;;3.63;2.17;;;1.60;99.90;;;;;;5048410;28;20028;-81
2022/12/28 05:43:21;;;;;;;3.50;2.60;;;1.60;99.90;;;;;;5046606;28;20048;-81
2022/12/28 05:45:46;;;;;;;5.93;2.10;;;1.60;99.90;;;;;;5045975;28;20366;-81
2022/12/28 05:48:12;;;;;;;3.60;2.00;;;1.70;99.90;;;;;;5046607;28;20025;-81
2022/12/28 05:50:39;;;;;;;2.60;2.00;;;1.70;99.90;;;;;;5047716;28;20496;-81
2022/12/28 05:53:05;;;;;;;3.97;2.00;;;1.70;99.90;;;;;;5029542;28;20021;-81
2022/12/28 05:55:30;;;;;;;4.63;2.13;;;1.80;99.90;;;;;;5046108;28;20043;-81
2022/12/28 05:57:56;;;;;;;3.03;2.10;;;1.80;99.90;;;;;;5045943;28;20382;-81
2022/12/28 06:00:21;;;;;;;2.77;2.33;;;1.80;99.90;;;;;;5045316;28;20077;-77
2022/12/28 06:02:47;;;;;;;3.17;2.17;;;1.90;99.90;;;;;;5045676;28;20326;-77
2022/12/28 06:05:13;;;;;;;5.60;2.33;;;1.90;99.90;;;;;;5044550;28;20501;-77
2022/12/28 06:07:38;;;;;;;4.77;2.17;;;1.90;99.90;;;;;;5046141;28;20017;-77
2022/12/28 06:10:04;;;;;;;2.90;2.17;;;1.90;99.90;;;;;;5045202;28;20028;-77
2022/12/28 06:12:30;;;;;;;3.30;2.50;;;1.90;99.90;;;;;;5045075;28;20024;-77
2022/12/28 06:14:55;;;;;;;4.03;2.40;;;1.90;99.90;;;;;;5043367;28;20401;-77
2022/12/28 06:17:21;;;;;;;2.93;2.10;;;1.90;99.90;;;;;;5045025;28;20029;-77
2022/12/28 06:20:01;;;;;;;3.97;2.40;;;1.90;99.90;;;;;;5052567;28;20408;-77
2022/12/28 06:22:27;;;;;;;3.73;2.20;;;2.00;99.90;;;;;;5035824;28;20017;-77
2022/12/28 06:24:52;;;;;;;4.33;1.90;;;2.00;99.90;;;;;;5034428;28;20013;-77
2022/12/28 06:27:18;;;;;;;3.23;2.30;;;2.00;99.90;;;;;;5036760;28;20028;-77
2022/12/28 06:29:43;;;;;;;3.93;2.13;;;2.00;99.90;;;;;;5038658;28;20473;-77
2022/12/28 06:32:09;;;;;;;3.10;2.10;;;2.00;99.90;;;;;;5042983;28;20029;-78
2022/12/28 06:34:35;;;;;;;2.50;1.90;;;2.00;99.90;;;;;;5036088;28;20466;-78
2022/12/28 06:37:00;;;;;;;2.67;1.80;;;2.00;99.90;;;;;;5037999;28;20446;-78
2022/12/28 06:39:26;;;;;;;3.53;2.03;;;2.00;99.90;;;;;;5037943;28;20049;-78
2022/12/28 06:41:51;;;;;;;2.93;1.97;;;2.00;99.90;;;;;;5038218;28;20033;-78
2022/12/28 06:44:17;;;;;;;3.93;2.47;;;2.10;99.90;;;;;;5036371;28;20835;-78
2022/12/28 06:46:42;;;;;;;4.90;3.03;;;2.10;99.90;;;;;;5035652;28;20048;-78
2022/12/28 06:49:08;;;;;;;7.90;4.00;;;2.10;99.90;;;;;;5035470;28;20049;-78
2022/12/28 06:51:37;;;;;;;6.60;3.60;;;2.10;99.90;;;;;;5038863;28;20025;-78
2022/12/28 06:54:03;;;;;;;6.40;3.20;;;2.20;99.90;;;;;;5038550;28;20017;-78
2022/12/28 06:56:32;;;;;;;3.97;2.50;;;2.20;99.90;;;;;;5034732;28;20140;-78
2022/12/28 06:58:58;;;;;;;2.80;2.00;;;2.20;99.90;;;;;;5036073;28;20053;-79
2022/12/28 07:01:26;;;;;;;2.57;2.00;;;2.30;99.90;;;;;;5037123;28;20021;-78
2022/12/28 07:03:53;;;;;;;2.43;1.83;;;2.30;99.90;;;;;;5037955;28;20075;-78
2022/12/28 07:06:21;;;;;;;3.33;1.97;;;2.30;99.90;;;;;;5038769;28;20029;-78
2022/12/28 07:08:48;;;;;;;2.50;1.90;;;2.40;99.90;;;;;;5035662;28;20037;-78
2022/12/28 07:11:16;;;;;;;3.63;1.93;;;2.40;99.90;;;;;;5032241;28;20026;-84
2022/12/28 07:13:42;;;;;;;2.37;1.60;;;2.40;99.90;;;;;;5033910;28;20030;-70
2022/12/28 07:16:14;;;;;;;2.77;2.00;;;2.40;99.90;;;;;;5036194;28;20033;-79
2022/12/28 07:18:40;;;;;;;2.40;1.77;;;2.50;99.90;;;;;;5035041;28;20041;-78
2022/12/28 07:21:09;;;;;;;2.53;1.70;;;2.50;99.90;;;;;;5035795;28;20076;-79
2022/12/28 07:23:35;;;;;;;3.40;1.83;;;2.60;99.90;;;;;;5028742;28;20029;-79
2022/12/28 07:26:07;;;;;;;2.40;1.80;;;2.60;99.90;;;;;;5030212;28;20067;-79
2022/12/28 07:28:35;;;;;;;3.63;1.83;;;2.50;99.90;;;;;;5030251;28;20056;-79
2022/12/28 07:31:05;;;;;;;2.70;1.90;;;2.60;99.90;;;;;;5016735;28;20200;-79
2022/12/28 07:33:31;;;;;;;3.90;1.80;;;2.60;99.90;;;;;;5016158;28;20117;-79
2022/12/28 07:35:57;;;;;;;3.40;1.90;;;2.60;99.90;;;;;;5016709;28;20040;-79
2022/12/28 07:38:23;;;;;;;3.47;1.90;;;2.60;99.90;;;;;;5014573;28;20450;-79
2022/12/28 07:40:48;;;;;;;2.83;2.10;;;2.60;99.90;;;;;;5013961;28;20058;-79
2022/12/28 07:43:14;;;;;;;2.80;2.00;;;2.60;99.90;;;;;;5015011;28;20122;-79
2022/12/28 07:45:39;;;;;;;3.10;1.97;;;2.70;99.90;;;;;;5015766;28;20026;-79
2022/12/28 07:48:05;;;;;;;4.60;1.90;;;2.70;99.90;;;;;;5015661;28;20091;-79
2022/12/28 07:50:31;;;;;;;3.90;2.00;;;2.70;99.90;;;;;;5017633;28;20104;-79
2022/12/28 07:52:56;;;;;;;3.13;1.90;;;2.80;99.90;;;;;;5018562;28;20032;-79
2022/12/28 07:55:23;;;;;;;2.10;1.77;;;2.80;99.90;;;;;;5016408;28;20033;-79
2022/12/28 07:57:50;;;;;;;2.83;1.60;;;2.90;99.90;;;;;;5015906;28;20048;-79
2022/12/28 08:00:15;;;;;;;4.27;2.57;;;3.00;99.90;;;;;;5014890;28;20034;-79
2022/12/28 08:02:41;;;;;;;1.90;1.60;;;3.00;99.90;;;;;;5013534;28;20018;-79
2022/12/28 08:05:07;;;;;;;2.73;1.90;;;3.10;99.90;;;;;;5016791;28;20029;-79
2022/12/28 08:07:32;;;;;;;3.30;1.93;;;3.10;99.90;;;;;;5017014;28;20018;-79
2022/12/28 08:09:58;;;;;;;1.47;1.30;;;3.20;99.90;;;;;;5017847;28;20026;-79
2022/12/28 08:12:23;;;;;;;5.60;1.60;;;3.20;99.90;;;;;;5015333;28;20095;-79
2022/12/28 08:14:49;;;;;;;2.20;1.50;;;3.30;99.90;;;;;;5014614;28;20036;-79
2022/12/28 08:17:14;;;;;;;3.63;1.30;;;3.30;99.90;;;;;;5015363;28;20026;-79
2022/12/28 08:19:40;;;;;;;3.23;1.70;;;3.40;99.90;;;;;;5016899;28;20050;-79
2022/12/28 08:22:05;;;;;;;1.90;1.20;;;3.50;99.90;;;;;;5014994;28;20022;-79
2022/12/28 08:24:31;;;;;;;2.37;1.40;;;3.50;99.90;;;;;;5016292;28;20026;-79
2022/12/28 08:26:57;;;;;;;1.90;1.30;;;3.60;99.90;;;;;;5014021;28;20522;-79
2022/12/28 08:29:22;;;;;;;2.93;1.60;;;3.70;99.90;;;;;;5017556;28;20040;-79
2022/12/28 08:31:49;;;;;;;1.93;1.40;;;3.80;99.90;;;;;;5015263;28;20030;-79
2022/12/28 08:34:25;;;;;;;3.47;1.47;;;3.80;99.90;;;;;;5012693;28;20037;-79
2022/12/28 08:36:50;;;;;;;2.40;1.40;;;3.90;99.90;;;;;;5011947;28;20029;-79
2022/12/28 08:39:16;;;;;;;3.47;1.80;;;4.00;99.90;;;;;;5014476;28;20387;-79
2022/12/28 08:41:41;;;;;;;2.77;1.40;;;4.00;99.90;;;;;;5013833;28;20576;-79
2022/12/28 08:44:07;;;;;;;3.17;1.50;;;4.00;99.90;;;;;;5013138;28;20028;-79
2022/12/28 08:46:34;;;;;;;3.00;1.63;;;4.10;99.90;;;;;;5012586;28;20176;-79
2022/12/28 08:49:00;;;;;;;2.63;1.50;;;4.10;99.90;;;;;;5020010;28;20021;-79
2022/12/28 08:51:32;;;;;;;3.73;1.70;;;4.20;99.90;;;;;;5022545;28;20037;-79
2022/12/28 08:53:58;;;;;;;3.23;1.50;;;4.20;99.90;;;;;;5020325;28;20340;-79
2022/12/28 08:56:27;;;;;;;2.43;1.43;;;4.20;99.90;;;;;;5019809;28;20056;-79
2022/12/28 08:58:53;;;;;;;2.97;1.37;;;4.30;99.90;;;;;;5019389;28;20034;-79
2022/12/28 09:01:21;;;;;;;3.13;1.37;;;4.30;99.90;;;;;;5022351;28;20021;-79
2022/12/28 09:03:49;;;;;;;2.07;1.37;;;4.40;99.90;;;;;;5021266;28;20355;-79
2022/12/28 09:06:18;;;;;;;2.13;1.30;;;4.40;99.90;;;;;;5022929;28;20034;-79
2022/12/28 09:08:47;;;;;;;2.33;1.50;;;4.50;99.90;;;;;;5017460;28;20037;-80
2022/12/28 09:11:13;;;;;;;4.13;1.43;;;4.60;99.90;;;;;;5033838;28;20022;-80
2022/12/28 09:13:38;;;;;;;1.97;1.37;;;4.60;99.90;;;;;;5017405;28;20022;-79
2022/12/28 09:16:16;;;;;;;3.27;1.80;;;4.70;99.90;;;;;;5018922;28;20024;-79
2022/12/28 09:18:44;;;;;;;5.23;1.50;;;4.80;99.90;;;;;;5020420;28;20387;-80
2022/12/28 09:21:16;;;;;;;3.93;2.40;;;4.80;99.90;;;;;;5020924;28;20029;-80
2022/12/28 09:23:43;;;;;;;2.50;1.57;;;4.90;99.90;;;;;;5019034;28;20391;-79
2022/12/28 09:26:15;;;;;;;2.37;1.30;;;5.00;99.90;;;;;;5018077;28;20021;-79
2022/12/28 09:28:49;;;;;;;2.00;1.37;;;5.10;99.90;;;;;;5020552;28;20157;-79
2022/12/28 09:31:15;;;;;;;2.13;1.40;;;5.10;99.90;;;;;;5022654;28;20091;-80
2022/12/28 09:33:59;;;;;;;2.50;1.33;;;5.20;99.90;;;;;;5022124;28;20018;-79
2022/12/28 09:36:39;;;;;;;3.37;1.40;;;5.20;99.90;;;;;;5018413;28;20109;-79
2022/12/28 09:39:08;;;;;;;3.17;1.67;;;5.30;99.90;;;;;;5020715;28;20037;-79
2022/12/28 09:41:47;;;;;;;6.47;1.70;;;5.30;99.90;;;;;;5019877;28;20018;-79
2022/12/28 09:44:14;;;;;;;2.73;1.50;;;5.40;99.90;;;;;;5020145;28;20025;-79
2022/12/28 09:46:47;;;;;;;3.23;1.73;;;5.50;99.90;;;;;;5020108;28;20016;-79
2022/12/28 09:49:17;;;;;;;4.33;1.70;;;5.60;99.90;;;;;;5018810;28;20068;-79
2022/12/28 09:52:08;;;;;;;2.10;1.20;;;5.70;99.90;;;;;;5020183;28;20018;-79
2022/12/28 09:54:34;;;;;;;1.83;1.40;;;5.80;99.90;;;;;;5018285;28;20044;-79
2022/12/28 09:56:59;;;;;;;2.60;1.07;;;5.80;99.90;;;;;;5017790;28;20815;-79
2022/12/28 09:59:31;;;;;;;3.80;1.43;;;5.90;99.90;;;;;;5018925;28;20088;-80
2022/12/28 10:02:01;;;;;;;2.37;1.50;;;6.00;99.90;;;;;;5021361;28;20371;-80
2022/12/28 10:04:27;;;;;;;3.10;1.30;;;6.00;99.90;;;;;;5018008;28;20073;-79
2022/12/28 10:06:52;;;;;;;3.87;1.50;;;6.10;99.90;;;;;;5020763;28;20026;-79
2022/12/28 10:09:32;;;;;;;3.60;1.20;;;6.20;99.90;;;;;;5021073;28;20029;-80
2022/12/28 10:12:00;;;;;;;2.00;1.23;;;6.30;99.90;;;;;;5021227;28;20021;-79
2022/12/28 10:14:35;;;;;;;2.63;1.27;;;6.40;99.90;;;;;;5023431;28;20037;-80
2022/12/28 10:17:01;;;;;;;4.30;1.67;;;6.50;99.90;;;;;;5018522;28;20031;-79
2022/12/28 10:19:28;;;;;;;2.80;1.53;;;6.60;99.90;;;;;;5016800;28;20124;-80
2022/12/28 10:22:06;;;;;;;4.83;1.23;;;6.60;99.90;;;;;;5020297;28;20018;-79
2022/12/28 10:24:32;;;;;;;3.07;1.60;;;6.70;99.90;;;;;;5019786;28;20446;-79
2022/12/28 10:27:00;;;;;;;2.17;1.47;;;6.80;99.90;;;;;;5019999;28;20395;-80
2022/12/28 10:29:26;;;;;;;3.77;1.83;;;6.80;99.90;;;;;;5017861;28;20544;-79
2022/12/28 10:32:11;;;;;;;2.70;1.50;;;6.80;99.90;;;;;;5019966;28;20026;-79
2022/12/28 10:34:59;;;;;;;3.50;1.75;;;6.80;99.90;;;;;;5020970;28;20034;-79
2022/12/28 10:37:29;;;;;;;3.67;2.50;;;6.90;99.90;;;;;;5021763;28;20112;-80
2022/12/28 10:39:58;;;;;;;3.63;2.10;;;6.90;99.90;;;;;;5021763;28;20038;-79
2022/12/28 10:42:37;;;;;;;5.40;2.23;;;7.00;99.90;;;;;;5017045;28;20021;-79
2022/12/28 10:45:18;;;;;;;1.93;1.20;;;7.00;99.90;;;;;;5017545;28;20082;-80
2022/12/28 10:47:47;;;;;;;2.93;1.50;;;7.00;99.90;;;;;;5021482;28;20026;-80
2022/12/28 10:50:38;;;;;;;3.47;1.40;;;7.00;99.90;;;;;;5020167;28;20056;-80
2022/12/28 10:53:14;;;;;;;3.20;1.60;;;7.10;99.90;;;;;;5017492;28;20025;-80
2022/12/28 10:55:39;;;;;;;;;;;7.00;99.90;;;;;;5020159;28;20486;-79
2022/12/28 10:58:32;;;;;;;4.57;1.27;;;7.10;99.90;;;;;;5018375;28;20237;-79
2022/12/28 11:01:22;;;;;;;3.50;1.40;;;7.10;99.90;;;;;;5015276;28;20029;-79
2022/12/28 11:03:56;;;;;;;2.37;1.00;;;7.20;99.90;;;;;;5018654;28;20367;-79
2022/12/28 11:06:27;;;;;;;4.83;1.20;;;7.20;99.90;;;;;;5021320;28;20052;-80
2022/12/28 11:09:04;;;;;;;3.30;1.13;;;7.20;99.90;;;;;;5020705;28;20060;-79
2022/12/28 11:11:32;;;;;;;4.03;1.10;;;7.40;99.90;;;;;;5021311;28;20021;-79
2022/12/28 11:14:02;;;;;;;1.57;0.90;;;7.40;99.90;;;;;;5021261;28;20029;-80
2022/12/28 11:16:34;;;;;;;2.53;1.20;;;7.50;99.90;;;;;;5021141;28;20049;-80
2022/12/28 11:18:59;;;;;;;1.60;1.00;;;7.50;99.90;;;;;;5022022;28;20096;-79
2022/12/28 11:21:25;;;;;;;2.87;1.30;;;7.50;99.90;;;;;;5021321;28;20021;-79
2022/12/28 11:23:52;;;;;;;3.80;1.60;;;7.50;99.90;;;;;;5021565;28;20045;-79
2022/12/28 11:26:18;;;;;;;2.53;1.10;;;7.50;99.90;;;;;;5021997;28;20108;-79
2022/12/28 11:28:47;;;;;;;1.47;0.97;;;7.60;99.90;;;;;;5021745;28;20018;-79
2022/12/28 11:31:22;;;;;;;2.20;0.90;;;7.60;99.90;;;;;;5019624;28;20393;-79
2022/12/28 11:33:50;;;;;;;;;;;7.60;99.90;;;;;;5020661;28;20050;-79
2022/12/28 11:36:19;;;;;;;1.00;0.70;;;7.60;99.90;;;;;;5013803;28;19913;-79
2022/12/28 11:38:47;;;;;;;4.03;0.90;;;7.60;99.90;;;;;;5030275;28;20040;-79
2022/12/28 11:41:26;;;;;;;1.80;1.00;;;7.60;99.90;;;;;;5013913;28;20017;-79
2022/12/28 11:43:57;;;;;;;1.27;0.90;;;7.60;99.90;;;;;;5015343;28;20482;-79
2022/12/28 11:46:23;;;;;;;2.23;1.00;;;7.70;99.90;;;;;;5014442;28;20036;-79
2022/12/28 11:49:00;;;;;;;2.57;1.03;;;7.60;99.90;;;;;;5014425;28;20351;-79
2022/12/28 11:51:34;;;;;;;3.50;1.00;;;7.70;99.90;;;;;;5014503;28;20088;-79
2022/12/28 11:54:02;;;;;;;2.40;1.20;;;7.70;99.90;;;;;;5014567;28;20033;-79
2022/12/28 11:56:43;;;;;;;1.20;0.90;;;7.70;99.90;;;;;;5013700;28;20445;-79
2022/12/28 11:59:21;;;;;;;2.40;1.10;;;7.70;99.90;;;;;;5012903;28;20026;-79
2022/12/28 12:01:49;;;;;;;3.90;1.30;;;7.80;99.90;;;;;;5016023;28;20029;-79
2022/12/28 12:04:16;;;;;;;4.00;1.50;;;7.80;99.90;;;;;;5014342;28;20041;-79
2022/12/28 12:06:41;;;;;;;2.43;1.10;;;7.80;99.90;;;;;;5014306;28;20057;-79
2022/12/28 12:09:37;;;;;;;3.73;1.20;;;7.90;99.90;;;;;;5017160;28;20176;-79
2022/12/28 12:12:28;;;;;;;2.28;1.00;;;7.90;99.90;;;;;;5015743;28;20132;-79
2022/12/28 12:15:01;;;;;;;4.17;1.50;;;8.00;99.90;;;;;;5012358;28;20339;-79
2022/12/28 12:17:43;;;;;;;4.50;0.90;;;8.00;99.90;;;;;;5014660;28;20036;-79
2022/12/28 12:20:41;;;;;;;2.63;1.03;;;8.10;99.90;;;;;;5013977;28;20125;-79
2022/12/28 12:23:35;;;;;;;2.87;1.10;;;8.20;99.90;;;;;;5013896;28;20038;-79
2022/12/28 12:26:38;;;;;;;2.53;1.17;;;8.30;99.90;;;;;;5003356;28;20065;-80
2022/12/28 12:29:13;;;;;;;1.80;1.17;;;8.40;99.90;;;;;;5013240;28;20038;-80
2022/12/28 12:31:44;;;;;;;6.28;1.20;;;8.50;99.90;;;;;;5015779;28;20022;-79
2022/12/28 12:34:23;;;;;;;3.07;1.40;;;8.50;99.90;;;;;;5015523;28;20064;-79
2022/12/28 12:37:09;;;;;;;3.10;1.20;;;8.50;99.90;;;;;;5015994;28;20063;-79
2022/12/28 12:39:37;;;;;;;2.47;1.00;;;8.50;99.90;;;;;;5012285;28;20030;-79
2022/12/28 12:42:16;;;;;;;5.80;1.50;;;8.40;99.90;;;;;;5012448;28;20025;-79
2022/12/28 12:45:26;;;;;;;3.47;1.03;;;8.30;99.90;;;;;;5012872;28;20081;-80
2022/12/28 12:47:52;;;;;;;1.70;1.10;;;8.30;99.90;;;;;;5025878;28;20029;-79
2022/12/28 12:50:40;;;;;;;2.10;1.00;;;8.30;99.90;;;;;;5016335;28;20351;-79
2022/12/28 12:53:39;;;;;;;4.40;1.00;;;8.30;99.90;;;;;;5012520;28;20030;-79
2022/12/28 12:56:30;;;;;;;5.13;1.00;;;8.30;99.90;;;;;;5012349;28;20030;-79
2022/12/28 12:59:23;;;;;;;2.97;0.93;;;8.30;99.90;;;;;;5011715;28;20046;-79
2022/12/28 13:02:02;;;;;;;2.83;1.10;;;8.40;99.90;;;;;;5013161;28;20083;-79
2022/12/28 13:04:30;;;;;;;3.37;1.20;;;8.40;99.90;;;;;;5013064;28;20385;-79
2022/12/28 13:06:59;;;;;;;2.90;1.30;;;8.40;99.90;;;;;;5013766;28;20112;-79
2022/12/28 13:09:28;;;;;;;3.23;1.20;;;8.50;99.90;;;;;;5011237;28;20052;-79
2022/12/28 13:11:55;;;;;;;2.13;0.90;;;8.50;99.90;;;;;;5013120;28;20061;-79
2022/12/28 13:14:23;;;;;;;1.50;0.90;;;8.60;99.90;;;;;;5013293;28;20036;-79
2022/12/28 13:16:55;;;;;;;2.20;1.07;;;8.60;99.90;;;;;;5012745;28;20104;-79
2022/12/28 13:19:29;;;;;;;2.60;1.00;;;8.60;99.90;;;;;;5012717;28;20497;-79
2022/12/28 13:21:57;;;;;;;2.30;1.25;;;8.60;99.90;;;;;;5015636;28;20017;-79
2022/12/28 13:24:34;;;;;;;1.73;1.00;;;8.60;99.90;;;;;;5014596;28;20156;-79
2022/12/28 13:27:00;;;;;;;2.13;1.13;;;8.60;99.90;;;;;;5019392;28;20026;-79
2022/12/28 13:29:30;;;;;;;3.63;1.10;;;8.60;99.90;;;;;;5018043;28;20685;-79
2022/12/28 13:31:56;;;;;;;3.63;1.10;;;8.50;99.90;;;;;;5017728;28;20034;-79
2022/12/28 13:34:24;;;;;;;2.90;1.20;;;8.50;99.90;;;;;;5021875;28;20079;-79
2022/12/28 13:36:59;;;;;;;2.37;1.10;;;8.50;99.90;;;;;;5021000;28;20033;-79
2022/12/28 13:39:29;;;;;;;3.08;1.00;;;8.50;99.90;;;;;;5017074;28;20053;-79
2022/12/28 13:42:03;;;;;;;3.17;1.40;;;8.40;99.90;;;;;;5021612;28;20128;-79
2022/12/28 13:44:40;;;;;;;2.28;1.23;;;8.40;99.90;;;;;;5021524;28;20034;-79
2022/12/28 13:47:09;;;;;;;3.73;1.30;;;8.40;99.90;;;;;;5021365;28;20021;-79
2022/12/28 13:49:45;;;;;;;3.30;1.30;;;8.50;99.90;;;;;;5021105;28;20120;-79
2022/12/28 13:52:15;;;;;;;2.67;1.10;;;8.40;99.90;;;;;;5023396;28;20022;-79
2022/12/28 13:54:46;;;;;;;3.13;1.10;;;8.40;99.90;;;;;;5021131;28;20108;-79
2022/12/28 13:57:15;;;;;;;4.07;1.23;;;8.40;99.90;;;;;;5021734;28;20082;-79